Time;durP1;ratioP1;P1;durP2;ratioP2;P2;SDS_P1;SDS_P2;PMS_P1;PMS_P2;Temp;Humidity;BMP_temperature;BMP_pressure;BME280_temperature;BME280_humidity;BME280_pressure;Samples;Min_cycle;Max_cycle;Signal;HPM_P1;HPM_P2
2022/10/07 00:00:26;;;;;;;10.13;2.45;;;;;;;;;;5022383;28;20048;-61
2022/10/07 00:02:52;;;;;;;8.98;4.68;;;;;;;;;;5027485;28;20084;-62
2022/10/07 00:05:19;;;;;;;9.93;4.90;;;;;;;;;;5012009;28;20053;-60
2022/10/07 00:07:45;;;;;;;13.48;4.63;;;;;;;;;;5014913;28;20049;-63
2022/10/07 00:10:13;;;;;;;14.15;6.22;;;;;;;;;;5017644;28;20088;-63
2022/10/07 00:12:39;;;;;;;13.80;5.80;;;;;;;;;;5044870;28;20099;-60
2022/10/07 00:15:06;;;;;;;11.93;5.13;;;;;;;;;;5039655;28;20049;-60
2022/10/07 00:17:35;;;;;;;8.68;3.28;;;;;;;;;;5030653;28;20056;-59
2022/10/07 00:20:01;;;;;;;11.85;5.05;;;;;;;;;;5024754;28;20045;-60
2022/10/07 00:22:28;;;;;;;14.27;5.35;;;;;;;;;;5031283;28;20120;-59
2022/10/07 00:24:54;;;;;;;9.52;3.38;;;;;;;;;;5025625;28;20055;-60
2022/10/07 00:27:21;;;;;;;12.43;5.00;;;;;;;;;;5030820;28;20044;-60
2022/10/07 00:29:47;;;;;;;10.48;3.80;;;;;;;;;;5023824;28;20068;-60
2022/10/07 00:32:14;;;;;;;12.68;4.43;;;;;;;;;;5011203;28;20057;-63
2022/10/07 00:34:42;;;;;;;9.68;4.13;;;;;;;;;;5011630;28;20053;-60
2022/10/07 00:37:08;;;;;;;10.60;4.80;;;;;;;;;;5024534;28;20057;-62
2022/10/07 00:39:35;;;;;;;10.68;4.35;;;;;;;;;;5030825;28;20314;-61
2022/10/07 00:42:01;;;;;;;11.77;4.88;;;;;;;;;;5006812;28;20163;-60
2022/10/07 00:44:37;;;;;;;10.43;4.43;;;;;;;;;;5027671;28;20141;-63
2022/10/07 00:47:05;;;;;;;9.85;4.15;;;;;;;;;;5004931;28;20065;-61
2022/10/07 00:49:35;;;;;;;13.60;4.43;;;;;;;;;;5011187;28;20064;-63
2022/10/07 00:52:03;;;;;;;13.10;3.88;;;;;;;;;;5015682;28;20068;-61
2022/10/07 00:54:29;;;;;;;11.02;4.10;;;;;;;;;;5030868;28;20072;-61
2022/10/07 00:56:57;;;;;;;8.20;3.90;;;;;;;;;;5014920;28;20053;-61
2022/10/07 00:59:24;;;;;;;10.38;3.70;;;;;;;;;;5010244;28;20049;-61
2022/10/07 01:01:51;;;;;;;10.02;4.00;;;;;;;;;;5005926;28;20115;-62
2022/10/07 01:04:19;;;;;;;9.80;4.00;;;;;;;;;;5009316;28;20126;-61
2022/10/07 01:06:45;;;;;;;9.68;4.53;;;;;;;;;;5011094;28;20055;-63
2022/10/07 01:09:16;;;;;;;11.25;4.43;;;;;;;;;;5029972;28;20080;-64
2022/10/07 01:11:47;;;;;;;9.02;3.63;;;;;;;;;;5021124;28;20095;-60
2022/10/07 01:14:17;;;;;;;10.02;3.35;;;;;;;;;;5045989;28;20046;-60
2022/10/07 01:16:48;;;;;;;11.20;4.13;;;;;;;;;;5023609;28;20814;-61
2022/10/07 01:19:23;;;;;;;7.22;3.38;;;;;;;;;;5028252;28;20126;-61
2022/10/07 01:22:02;;;;;;;9.50;3.63;;;;;;;;;;5022934;28;20197;-61
2022/10/07 01:24:38;;;;;;;6.82;3.38;;;;;;;;;;5010623;28;20052;-60
2022/10/07 01:27:10;;;;;;;9.27;3.70;;;;;;;;;;5005202;28;20077;-59
2022/10/07 01:29:38;;;;;;;11.05;3.70;;;;;;;;;;5010135;28;20068;-59
2022/10/07 01:32:09;;;;;;;7.85;3.35;;;;;;;;;;4996485;28;20087;-59
2022/10/07 01:34:36;;;;;;;10.70;3.35;;;;;;;;;;5029663;28;20053;-62
2022/10/07 01:37:05;;;;;;;7.22;3.05;;;;;;;;;;5029439;28;20083;-64
2022/10/07 01:39:33;;;;;;;11.45;3.72;;;;;;;;;;5023159;28;20049;-60
2022/10/07 01:42:00;;;;;;;7.13;3.10;;;;;;;;;;5030342;28;20131;-62
2022/10/07 01:44:29;;;;;;;8.32;3.15;;;;;;;;;;5023930;28;20106;-64
2022/10/07 01:46:56;;;;;;;9.10;3.22;;;;;;;;;;5016844;28;20054;-61
2022/10/07 01:49:22;;;;;;;7.82;3.00;;;;;;;;;;4991119;28;20081;-63
2022/10/07 01:51:54;;;;;;;7.68;3.20;;;;;;;;;;4990941;28;20080;-63
2022/10/07 01:54:27;;;;;;;9.20;2.97;;;;;;;;;;5001293;28;20132;-60
2022/10/07 01:57:00;;;;;;;8.00;2.78;;;;;;;;;;4990287;28;20107;-64
2022/10/07 01:59:44;;;;;;;5.63;2.60;;;;;;;;;;4990766;28;20061;-63
2022/10/07 02:02:16;;;;;;;8.05;2.70;;;;;;;;;;5006058;28;20056;-61
2022/10/07 02:04:52;;;;;;;10.55;2.60;;;;;;;;;;5008007;28;20072;-63
2022/10/07 02:07:27;;;;;;;11.43;3.00;;;;;;;;;;4989405;28;20062;-60
2022/10/07 02:09:58;;;;;;;7.85;2.35;;;;;;;;;;4985762;28;20137;-61
2022/10/07 02:12:30;;;;;;;7.93;2.60;;;;;;;;;;4988880;28;20062;-61
2022/10/07 02:15:01;;;;;;;7.68;2.88;;;;;;;;;;4994457;28;20094;-60
2022/10/07 02:17:31;;;;;;;9.02;2.78;;;;;;;;;;5010059;28;20060;-60
2022/10/07 02:19:59;;;;;;;8.50;2.70;;;;;;;;;;5013877;28;20061;-61
2022/10/07 02:22:27;;;;;;;5.43;2.17;;;;;;;;;;4989698;28;20062;-62
2022/10/07 02:24:57;;;;;;;11.40;3.28;;;;;;;;;;5007486;28;20292;-61
2022/10/07 02:27:26;;;;;;;6.35;2.78;;;;;;;;;;5009072;28;20067;-61
2022/10/07 02:29:56;;;;;;;8.02;2.53;;;;;;;;;;4998789;28;20061;-59
2022/10/07 02:32:25;;;;;;;7.78;2.70;;;;;;;;;;4989879;28;20049;-61
2022/10/07 02:34:54;;;;;;;5.72;2.50;;;;;;;;;;4984172;28;20053;-61
2022/10/07 02:37:24;;;;;;;10.80;3.03;;;;;;;;;;4989169;28;20104;-62
2022/10/07 02:39:51;;;;;;;7.60;2.70;;;;;;;;;;4985182;28;20115;-60
2022/10/07 02:42:22;;;;;;;10.93;3.10;;;;;;;;;;4989810;28;20054;-61
2022/10/07 02:44:50;;;;;;;10.38;2.85;;;;;;;;;;5006076;28;20077;-60
2022/10/07 02:47:18;;;;;;;5.85;2.30;;;;;;;;;;5003867;28;20049;-61
2022/10/07 02:49:48;;;;;;;7.27;2.43;;;;;;;;;;5007906;28;20054;-60
2022/10/07 02:52:17;;;;;;;6.38;2.17;;;;;;;;;;5003150;28;20053;-62
2022/10/07 02:54:47;;;;;;;9.23;2.72;;;;;;;;;;5009165;28;20057;-60
2022/10/07 02:57:15;;;;;;;7.35;2.50;;;;;;;;;;4987592;28;20050;-61
2022/10/07 02:59:43;;;;;;;6.65;2.50;;;;;;;;;;4989390;28;20053;-60
2022/10/07 03:02:13;;;;;;;5.07;2.03;;;;;;;;;;4984303;28;20119;-60
2022/10/07 03:04:39;;;;;;;7.32;2.67;;;;;;;;;;4989156;28;20108;-61
2022/10/07 03:07:06;;;;;;;4.95;2.20;;;;;;;;;;4984425;28;20054;-61
2022/10/07 03:09:34;;;;;;;5.30;2.20;;;;;;;;;;4988832;28;20053;-64
2022/10/07 03:12:01;;;;;;;4.68;1.90;;;;;;;;;;4984448;28;20057;-63
2022/10/07 03:14:28;;;;;;;5.18;2.20;;;;;;;;;;5002059;28;20072;-60
2022/10/07 03:16:54;;;;;;;12.07;2.40;;;;;;;;;;5002995;28;20060;-61
2022/10/07 03:19:22;;;;;;;5.00;1.95;;;;;;;;;;5008668;28;20045;-60
2022/10/07 03:21:49;;;;;;;4.33;2.00;;;;;;;;;;4998588;28;20046;-61
2022/10/07 03:24:17;;;;;;;8.00;2.45;;;;;;;;;;4988601;28;20049;-61
2022/10/07 03:26:45;;;;;;;8.02;2.10;;;;;;;;;;4983915;28;20060;-59
2022/10/07 03:29:12;;;;;;;6.63;1.90;;;;;;;;;;4988202;28;20062;-63
2022/10/07 03:31:40;;;;;;;12.18;2.05;;;;;;;;;;4988753;28;20050;-62
2022/10/07 03:34:06;;;;;;;4.38;1.85;;;;;;;;;;5004844;28;20057;-60
2022/10/07 03:36:33;;;;;;;15.55;2.85;;;;;;;;;;5024041;28;20054;-61
2022/10/07 03:38:59;;;;;;;6.95;2.00;;;;;;;;;;4991409;28;20108;-60
2022/10/07 03:41:26;;;;;;;7.10;2.35;;;;;;;;;;5016243;28;20144;-59
2022/10/07 03:43:56;;;;;;;6.25;2.17;;;;;;;;;;4987933;28;20120;-62
2022/10/07 03:46:22;;;;;;;4.93;1.85;;;;;;;;;;4995828;28;20053;-60
2022/10/07 03:48:50;;;;;;;7.90;2.58;;;;;;;;;;5002500;28;20139;-60
2022/10/07 03:51:16;;;;;;;7.45;2.30;;;;;;;;;;5007936;28;20083;-59
2022/10/07 03:53:43;;;;;;;5.07;2.25;;;;;;;;;;5010010;28;20053;-60
2022/10/07 03:56:10;;;;;;;7.32;2.42;;;;;;;;;;5024192;28;20127;-60
2022/10/07 03:58:37;;;;;;;11.23;2.75;;;;;;;;;;5014698;28;20045;-59
2022/10/07 04:01:05;;;;;;;8.10;2.40;;;;;;;;;;5015128;28;20167;-61
2022/10/07 04:03:32;;;;;;;6.80;2.20;;;;;;;;;;5005611;28;20082;-61
2022/10/07 04:05:59;;;;;;;8.25;2.60;;;;;;;;;;5027281;28;20048;-60
2022/10/07 04:08:27;;;;;;;7.85;2.10;;;;;;;;;;5020722;28;20089;-60
2022/10/07 04:10:54;;;;;;;7.93;2.55;;;;;;;;;;5027427;28;20139;-64
2022/10/07 04:13:21;;;;;;;16.30;3.80;;;;;;;;;;5007034;28;20135;-61
2022/10/07 04:15:48;;;;;;;5.93;2.35;;;;;;;;;;5006975;28;20118;-60
2022/10/07 04:18:16;;;;;;;10.10;2.67;;;;;;;;;;5007828;28;20050;-59
2022/10/07 04:20:44;;;;;;;6.20;2.10;;;;;;;;;;5019888;28;20037;-62
2022/10/07 04:23:11;;;;;;;7.00;2.15;;;;;;;;;;5027946;28;20065;-63
2022/10/07 04:25:42;;;;;;;10.30;2.47;;;;;;;;;;5021804;28;20060;-61
2022/10/07 04:28:13;;;;;;;10.82;2.15;;;;;;;;;;5027765;28;20057;-65
2022/10/07 04:30:42;;;;;;;9.73;3.13;;;;;;;;;;5007263;28;20080;-62
2022/10/07 04:33:09;;;;;;;9.50;2.88;;;;;;;;;;5007527;28;20137;-60
2022/10/07 04:35:38;;;;;;;9.95;2.13;;;;;;;;;;5014178;28;20061;-60
2022/10/07 04:38:05;;;;;;;9.15;3.00;;;;;;;;;;5018392;28;20131;-63
2022/10/07 04:40:31;;;;;;;8.27;2.45;;;;;;;;;;5024868;28;20106;-61
2022/10/07 04:45:42;;;;;;;4.50;1.88;;;;;;;;;;5015967;28;20053;-61
2022/10/07 04:48:08;;;;;;;6.35;2.08;;;;;;;;;;5011038;28;20289;-61
2022/10/07 04:50:37;;;;;;;9.05;2.47;;;;;;;;;;5006413;28;20057;-60
2022/10/07 04:53:05;;;;;;;11.57;2.40;;;;;;;;;;5027801;28;20049;-61
2022/10/07 04:55:36;;;;;;;13.60;3.25;;;;;;;;;;4990401;28;20136;-64
2022/10/07 04:58:02;;;;;;;6.30;1.73;;;;;;;;;;5044808;28;20049;-63
2022/10/07 05:00:29;;;;;;;4.60;1.55;;;;;;;;;;5005314;28;20053;-60
2022/10/07 05:02:55;;;;;;;9.05;1.92;;;;;;;;;;5027548;28;20135;-60
2022/10/07 05:05:22;;;;;;;3.88;1.75;;;;;;;;;;5042318;28;20057;-60
2022/10/07 05:07:51;;;;;;;4.05;1.63;;;;;;;;;;5029384;28;20053;-61
2022/10/07 05:10:19;;;;;;;6.70;1.85;;;;;;;;;;5030168;28;20053;-60
2022/10/07 05:12:46;;;;;;;6.03;1.70;;;;;;;;;;5040724;28;20060;-60
2022/10/07 05:15:13;;;;;;;9.55;2.30;;;;;;;;;;5030735;28;20053;-61
2022/10/07 05:17:39;;;;;;;12.60;2.33;;;;;;;;;;5024213;28;20045;-60
2022/10/07 05:20:07;;;;;;;7.38;2.00;;;;;;;;;;5047209;28;20056;-60
2022/10/07 05:22:33;;;;;;;5.70;1.70;;;;;;;;;;5031229;28;20037;-62
2022/10/07 05:25:01;;;;;;;9.60;2.55;;;;;;;;;;5029547;28;20037;-63
2022/10/07 05:27:28;;;;;;;9.63;3.00;;;;;;;;;;5020721;28;20119;-61
2022/10/07 05:29:55;;;;;;;8.68;2.63;;;;;;;;;;5010566;28;20076;-62
2022/10/07 05:32:21;;;;;;;8.68;2.15;;;;;;;;;;5005729;28;20049;-61
2022/10/07 05:34:48;;;;;;;10.77;2.88;;;;;;;;;;5043414;28;20092;-60
2022/10/07 05:37:15;;;;;;;6.32;1.75;;;;;;;;;;5004809;28;20111;-64
2022/10/07 05:39:41;;;;;;;12.25;2.45;;;;;;;;;;5026425;28;20067;-64
2022/10/07 05:42:12;;;;;;;10.23;2.38;;;;;;;;;;5020719;28;20049;-61
2022/10/07 05:44:38;;;;;;;7.57;1.77;;;;;;;;;;5010023;28;20123;-59
2022/10/07 05:47:05;;;;;;;14.98;2.70;;;;;;;;;;5005019;28;20041;-60
2022/10/07 05:49:31;;;;;;;4.90;1.80;;;;;;;;;;5008838;28;20041;-61
2022/10/07 05:51:58;;;;;;;11.88;2.60;;;;;;;;;;5009413;28;20056;-60
2022/10/07 05:54:24;;;;;;;9.40;1.88;;;;;;;;;;5004552;28;20057;-61
2022/10/07 05:56:51;;;;;;;7.43;2.60;;;;;;;;;;5019544;28;20052;-63
2022/10/07 05:59:20;;;;;;;9.07;2.08;;;;;;;;;;5020202;28;20148;-59
2022/10/07 06:01:46;;;;;;;7.63;2.17;;;;;;;;;;5024038;28;20050;-61
2022/10/07 06:04:13;;;;;;;12.27;2.38;;;;;;;;;;5035856;28;20079;-60
2022/10/07 06:06:39;;;;;;;5.10;1.80;;;;;;;;;;5027545;28;20114;-63
2022/10/07 06:14:37;;;;;;;6.57;2.10;;;;;;;;;;5034837;28;20052;-60
2022/10/07 06:17:04;;;;;;;15.50;2.60;;;;;;;;;;5043540;28;20048;-61
2022/10/07 06:19:31;;;;;;;6.80;1.73;;;;;;;;;;5014333;28;20123;-61
2022/10/07 06:21:58;;;;;;;9.13;2.55;;;;;;;;;;5027456;28;20114;-60
2022/10/07 06:24:25;;;;;;;13.18;2.55;;;;;;;;;;5038099;28;20049;-60
2022/10/07 06:26:54;;;;;;;6.85;2.17;;;;;;;;;;5034840;28;20057;-62
2022/10/07 06:29:20;;;;;;;11.02;2.70;;;;;;;;;;5019015;28;20068;-61
2022/10/07 06:31:48;;;;;;;12.43;2.55;;;;;;;;;;5025830;28;20107;-64
2022/10/07 06:34:15;;;;;;;5.95;1.83;;;;;;;;;;5036994;28;20053;-64
2022/10/07 06:36:42;;;;;;;8.30;2.50;;;;;;;;;;5041962;28;20136;-61
2022/10/07 06:39:08;;;;;;;5.15;1.90;;;;;;;;;;5035539;28;20260;-61
2022/10/07 06:41:35;;;;;;;13.65;2.85;;;;;;;;;;5040095;28;20053;-61
2022/10/07 06:44:01;;;;;;;16.75;2.95;;;;;;;;;;5026891;28;20056;-63
2022/10/07 06:46:28;;;;;;;13.80;2.45;;;;;;;;;;5016298;28;20056;-60
2022/10/07 06:48:57;;;;;;;8.00;2.45;;;;;;;;;;5010390;28;20103;-63
2022/10/07 06:51:23;;;;;;;11.15;1.92;;;;;;;;;;5018678;28;20067;-61
2022/10/07 06:53:51;;;;;;;9.82;2.13;;;;;;;;;;5027088;28;20076;-62
2022/10/07 06:56:17;;;;;;;13.93;2.00;;;;;;;;;;5039753;28;20145;-61
2022/10/07 06:58:44;;;;;;;9.57;1.77;;;;;;;;;;5023489;28;20049;-63
2022/10/07 07:01:11;;;;;;;7.80;1.83;;;;;;;;;;5036833;28;20052;-62
2022/10/07 07:03:38;;;;;;;6.82;2.00;;;;;;;;;;5027536;28;20056;-63
2022/10/07 07:06:06;;;;;;;7.75;1.80;;;;;;;;;;5021472;28;20056;-64
2022/10/07 07:08:33;;;;;;;14.63;2.08;;;;;;;;;;5028316;28;20053;-61
2022/10/07 07:11:02;;;;;;;7.80;1.55;;;;;;;;;;5016116;28;20057;-60
2022/10/07 07:13:29;;;;;;;7.95;1.73;;;;;;;;;;5021561;28;20067;-63
2022/10/07 07:15:56;;;;;;;4.60;1.33;;;;;;;;;;5021736;28;20048;-61
2022/10/07 07:18:23;;;;;;;6.55;1.77;;;;;;;;;;5028000;28;20056;-61
2022/10/07 07:20:50;;;;;;;7.88;1.67;;;;;;;;;;5022222;28;20067;-63
2022/10/07 07:23:19;;;;;;;5.55;1.58;;;;;;;;;;5033641;28;20045;-64
2022/10/07 07:25:45;;;;;;;7.78;1.52;;;;;;;;;;5007984;28;20085;-63
2022/10/07 07:28:13;;;;;;;11.57;2.88;;;;;;;;;;5032758;28;20071;-63
2022/10/07 07:30:40;;;;;;;15.00;3.67;;;;;;;;;;5044539;28;20087;-61
2022/10/07 07:33:07;;;;;;;7.50;1.70;;;;;;;;;;5004655;28;20107;-64
2022/10/07 07:35:36;;;;;;;13.20;3.10;;;;;;;;;;5008323;28;20068;-61
2022/10/07 07:38:03;;;;;;;9.85;2.92;;;;;;;;;;5002613;28;20077;-61
2022/10/07 07:40:31;;;;;;;16.30;3.60;;;;;;;;;;5025021;28;20079;-60
2022/10/07 07:42:57;;;;;;;18.35;3.67;;;;;;;;;;5015118;28;20037;-61
2022/10/07 07:45:24;;;;;;;10.35;2.80;;;;;;;;;;5028022;28;20106;-62
2022/10/07 07:47:51;;;;;;;9.02;2.72;;;;;;;;;;5031301;28;20058;-63
2022/10/07 07:50:19;;;;;;;8.77;2.78;;;;;;;;;;5024827;28;20158;-63
2022/10/07 07:52:46;;;;;;;17.58;3.70;;;;;;;;;;5003131;28;20119;-60
2022/10/07 07:55:14;;;;;;;9.63;2.20;;;;;;;;;;5007093;28;20085;-60
2022/10/07 07:57:42;;;;;;;11.47;2.93;;;;;;;;;;5003256;28;20088;-60
2022/10/07 08:00:10;;;;;;;18.13;3.50;;;;;;;;;;5008244;28;20073;-61
2022/10/07 08:02:36;;;;;;;9.75;2.58;;;;;;;;;;5005928;28;20049;-62
2022/10/07 08:05:04;;;;;;;11.95;2.22;;;;;;;;;;5028083;28;20064;-61
2022/10/07 08:07:31;;;;;;;15.18;2.95;;;;;;;;;;5036051;28;20055;-61
2022/10/07 08:09:58;;;;;;;16.48;3.00;;;;;;;;;;5005099;28;20079;-59
2022/10/07 08:12:25;;;;;;;18.10;3.38;;;;;;;;;;5007850;28;20053;-61
2022/10/07 08:14:53;;;;;;;13.48;2.78;;;;;;;;;;5011419;28;20069;-61
2022/10/07 08:17:20;;;;;;;16.45;3.25;;;;;;;;;;5031376;28;20136;-63
2022/10/07 08:19:47;;;;;;;16.67;3.22;;;;;;;;;;5021607;28;20056;-61
2022/10/07 08:22:16;;;;;;;13.10;2.35;;;;;;;;;;5032000;28;20067;-63
2022/10/07 08:24:43;;;;;;;17.20;3.70;;;;;;;;;;5007045;28;20053;-62
2022/10/07 08:27:10;;;;;;;11.07;2.70;;;;;;;;;;5011941;28;20080;-64
2022/10/07 08:29:36;;;;;;;12.82;2.90;;;;;;;;;;5039940;28;20136;-63
2022/10/07 08:32:05;;;;;;;10.55;2.42;;;;;;;;;;5031127;28;20231;-61
2022/10/07 08:34:31;;;;;;;13.75;3.38;;;;;;;;;;5008114;28;22940;-63
2022/10/07 08:36:58;;;;;;;18.75;6.30;;;;;;;;;;5011256;28;20050;-61
2022/10/07 08:39:26;;;;;;;11.50;3.65;;;;;;;;;;5014029;28;20058;-60
2022/10/07 08:41:56;;;;;;;13.32;2.28;;;;;;;;;;5021844;28;20119;-60
2022/10/07 08:44:25;;;;;;;11.77;2.20;;;;;;;;;;5021546;28;20135;-61
2022/10/07 08:46:57;;;;;;;12.48;2.60;;;;;;;;;;5030369;28;20053;-60
2022/10/07 08:49:29;;;;;;;10.77;2.13;;;;;;;;;;5039647;28;20130;-62
2022/10/07 08:51:58;;;;;;;10.68;2.08;;;;;;;;;;5011387;28;20064;-63
2022/10/07 08:54:26;;;;;;;8.02;1.70;;;;;;;;;;5005936;28;20056;-62
2022/10/07 08:56:54;;;;;;;10.55;2.25;;;;;;;;;;5011615;28;20048;-62
2022/10/07 08:59:23;;;;;;;9.70;2.08;;;;;;;;;;5011282;28;20146;-61
2022/10/07 09:01:55;;;;;;;8.85;1.92;;;;;;;;;;5029205;28;20063;-60
2022/10/07 09:04:26;;;;;;;18.27;2.45;;;;;;;;;;5032150;28;20056;-61
2022/10/07 09:06:58;;;;;;;11.43;1.80;;;;;;;;;;5007267;28;20041;-61
2022/10/07 09:09:28;;;;;;;10.20;2.30;;;;;;;;;;5025293;28;20044;-60
2022/10/07 09:11:55;;;;;;;9.30;1.70;;;;;;;;;;5024501;28;20060;-63
2022/10/07 09:14:27;;;;;;;9.40;1.60;;;;;;;;;;5011145;28;20049;-62
2022/10/07 09:16:57;;;;;;;8.27;2.17;;;;;;;;;;5004633;28;20091;-64
2022/10/07 09:19:29;;;;;;;7.28;1.73;;;;;;;;;;5024127;28;20041;-64
2022/10/07 09:21:59;;;;;;;6.10;1.70;;;;;;;;;;5025204;28;20045;-63
2022/10/07 09:24:27;;;;;;;7.50;1.75;;;;;;;;;;5016418;28;20050;-64
2022/10/07 09:26:55;;;;;;;4.88;1.38;;;;;;;;;;5016238;28;20049;-60
2022/10/07 09:29:25;;;;;;;12.32;2.15;;;;;;;;;;5030505;28;20121;-64
2022/10/07 09:31:52;;;;;;;7.95;1.83;;;;;;;;;;5024499;28;20053;-61
2022/10/07 09:34:21;;;;;;;7.28;2.05;;;;;;;;;;5030182;28;20049;-61
2022/10/07 09:37:06;;;;;;;6.72;1.58;;;;;;;;;;5023829;28;20067;-65
2022/10/07 09:39:34;;;;;;;11.35;1.60;;;;;;;;;;5028330;28;20049;-60
2022/10/07 09:42:01;;;;;;;8.18;1.88;;;;;;;;;;5013566;28;20137;-64
2022/10/07 09:44:28;;;;;;;7.50;1.70;;;;;;;;;;5016791;28;20042;-66
2022/10/07 09:46:58;;;;;;;6.05;1.73;;;;;;;;;;5009584;28;20128;-69
2022/10/07 09:49:35;;;;;;;11.90;1.90;;;;;;;;;;5028317;28;20048;-66
2022/10/07 09:52:03;;;;;;;5.20;1.52;;;;;;;;;;5039862;28;20053;-66
2022/10/07 09:54:30;;;;;;;5.60;1.40;;;;;;;;;;5017255;28;20053;-61
2022/10/07 09:57:00;;;;;;;6.55;1.70;;;;;;;;;;5004712;28;20291;-70
2022/10/07 09:59:28;;;;;;;12.98;1.70;;;;;;;;;;5022014;28;20136;-62
2022/10/07 10:01:55;;;;;;;9.15;1.67;;;;;;;;;;5025329;28;20187;-70
2022/10/07 10:04:25;;;;;;;8.00;1.45;;;;;;;;;;5028438;28;20064;-67
2022/10/07 10:06:52;;;;;;;5.65;1.33;;;;;;;;;;5029299;28;20053;-70
2022/10/07 10:09:21;;;;;;;10.75;3.38;;;;;;;;;;5023667;28;20053;-69
2022/10/07 10:12:01;;;;;;;18.45;5.65;;;;;;;;;;5029720;28;20053;-67
2022/10/07 10:14:29;;;;;;;18.10;3.08;;;;;;;;;;5014740;28;20048;-70
2022/10/07 10:16:55;;;;;;;11.37;2.10;;;;;;;;;;5029140;28;20052;-70
2022/10/07 10:19:23;;;;;;;9.95;1.63;;;;;;;;;;5007979;28;20060;-64
2022/10/07 10:21:51;;;;;;;8.75;1.60;;;;;;;;;;5010059;28;20053;-65
2022/10/07 10:26:24;;;;;;;10.30;1.60;;;;;;;;;;5016200;28;20056;-66
2022/10/07 10:27:08;;;;;;;9.73;1.52;;;;;;;;;;5047526;28;20056;-65
2022/10/07 10:29:50;;;;;;;7.68;1.55;;;;;;;;;;5011400;28;20057;-68
2022/10/07 10:32:31;;;;;;;12.50;1.95;;;;;;;;;;5009231;28;20111;-68
2022/10/07 10:35:02;;;;;;;14.30;1.90;;;;;;;;;;5010368;28;20053;-66
2022/10/07 10:37:33;;;;;;;7.78;1.52;;;;;;;;;;5043833;28;20123;-67
2022/10/07 10:40:03;;;;;;;7.10;1.20;;;;;;;;;;5022827;28;20057;-67
2022/10/07 10:42:35;;;;;;;13.65;1.80;;;;;;;;;;5028857;28;20151;-64
2022/10/07 10:45:10;;;;;;;10.15;1.40;;;;;;;;;;5021054;28;20056;-64
2022/10/07 10:47:43;;;;;;;12.88;1.80;;;;;;;;;;5010205;28;20053;-61
2022/10/07 10:50:16;;;;;;;7.80;1.50;;;;;;;;;;5000161;28;20061;-63
2022/10/07 10:52:52;;;;;;;5.25;1.40;;;;;;;;;;5009034;28;20091;-70
2022/10/07 10:55:32;;;;;;;8.02;1.27;;;;;;;;;;4986612;28;20084;-62
2022/10/07 10:58:06;;;;;;;6.95;1.45;;;;;;;;;;4989463;28;20056;-63
2022/10/07 11:00:40;;;;;;;13.05;1.60;;;;;;;;;;4985115;28;20113;-70
2022/10/07 11:03:26;;;;;;;7.88;2.13;;;;;;;;;;4989275;28;20053;-63
2022/10/07 11:05:53;;;;;;;8.65;1.42;;;;;;;;;;4996588;28;20057;-63
2022/10/07 11:08:22;;;;;;;7.57;1.10;;;;;;;;;;5025111;28;20154;-59
2022/10/07 11:10:50;;;;;;;8.77;1.25;;;;;;;;;;5001318;28;20103;-68
2022/10/07 11:13:24;;;;;;;11.48;1.42;;;;;;;;;;4988703;28;20065;-67
2022/10/07 11:15:53;;;;;;;8.45;1.30;;;;;;;;;;5002203;28;20107;-67
2022/10/07 11:18:30;;;;;;;6.53;1.20;;;;;;;;;;5009097;28;20061;-63
2022/10/07 11:20:59;;;;;;;4.25;0.90;;;;;;;;;;4985861;28;20054;-64
2022/10/07 11:23:31;;;;;;;6.03;1.33;;;;;;;;;;4981000;28;20053;-62
2022/10/07 11:26:01;;;;;;;6.10;1.23;;;;;;;;;;4984312;28;20058;-69
2022/10/07 11:28:30;;;;;;;7.53;1.25;;;;;;;;;;4989383;28;20137;-66
2022/10/07 11:31:08;;;;;;;11.55;0.93;;;;;;;;;;4997737;28;20057;-69
2022/10/07 11:33:39;;;;;;;10.60;1.20;;;;;;;;;;4989089;28;20069;-60
2022/10/07 11:36:09;;;;;;;6.80;1.05;;;;;;;;;;4999709;28;20060;-61
2022/10/07 11:38:37;;;;;;;6.75;0.88;;;;;;;;;;4988563;28;20058;-63
2022/10/07 11:41:07;;;;;;;6.63;1.00;;;;;;;;;;4999795;28;20051;-58
2022/10/07 11:43:38;;;;;;;8.73;1.25;;;;;;;;;;4992999;28;20072;-59
2022/10/07 11:46:07;;;;;;;5.65;1.23;;;;;;;;;;5004223;28;20150;-60
2022/10/07 11:48:38;;;;;;;4.45;0.85;;;;;;;;;;5024526;28;20057;-67
2022/10/07 11:51:07;;;;;;;6.30;1.15;;;;;;;;;;5022707;28;20102;-61
2022/10/07 11:53:36;;;;;;;5.78;0.95;;;;;;;;;;5027093;28;20064;-60
2022/10/07 11:56:04;;;;;;;6.38;1.30;;;;;;;;;;5025410;28;20073;-64
2022/10/07 11:58:32;;;;;;;7.38;1.20;;;;;;;;;;5016567;28;20059;-64
2022/10/07 12:01:18;;;;;;;7.35;1.15;;;;;;;;;;5024185;28;20044;-62
2022/10/07 12:03:47;;;;;;;6.90;1.23;;;;;;;;;;5015756;28;20049;-63
2022/10/07 12:06:14;;;;;;;14.27;1.55;;;;;;;;;;5024868;28;20045;-64
2022/10/07 12:08:40;;;;;;;7.47;0.88;;;;;;;;;;5017358;28;20057;-65
2022/10/07 12:11:26;;;;;;;5.85;1.30;;;;;;;;;;5023370;28;20048;-64
2022/10/07 12:13:53;;;;;;;9.52;1.20;;;;;;;;;;5017010;28;20057;-62
2022/10/07 12:16:41;;;;;;;9.77;1.65;;;;;;;;;;5024306;28;20064;-63
2022/10/07 12:19:17;;;;;;;4.35;1.23;;;;;;;;;;5023626;28;20135;-64
2022/10/07 12:22:02;;;;;;;8.50;1.10;;;;;;;;;;5023475;28;20064;-65
2022/10/07 12:24:29;;;;;;;3.40;1.00;;;;;;;;;;5032035;28;20061;-64
2022/10/07 12:26:56;;;;;;;9.73;0.95;;;;;;;;;;5021027;28;20080;-62
2022/10/07 12:29:32;;;;;;;6.63;1.08;;;;;;;;;;5016217;28;20053;-61
2022/10/07 12:31:59;;;;;;;5.43;0.75;;;;;;;;;;5024001;28;20057;-66
2022/10/07 12:34:35;;;;;;;13.07;1.45;;;;;;;;;;5014645;28;20063;-64
2022/10/07 12:37:20;;;;;;;11.05;1.55;;;;;;;;;;5040637;28;20049;-65
2022/10/07 12:39:47;;;;;;;2.92;1.00;;;;;;;;;;5016042;28;20055;-63
2022/10/07 12:42:14;;;;;;;7.90;1.15;;;;;;;;;;5022514;28;20053;-60
2022/10/07 12:44:47;;;;;;;4.25;1.02;;;;;;;;;;5008055;28;20080;-63
2022/10/07 12:47:18;;;;;;;7.78;1.10;;;;;;;;;;5021583;28;20122;-60
2022/10/07 12:49:47;;;;;;;12.00;1.05;;;;;;;;;;5018083;28;20140;-61
2022/10/07 12:52:18;;;;;;;5.38;1.00;;;;;;;;;;5024205;28;20045;-66
2022/10/07 12:54:48;;;;;;;10.80;1.48;;;;;;;;;;5017678;28;20053;-64
2022/10/07 12:57:18;;;;;;;8.57;1.33;;;;;;;;;;5021009;28;20072;-64
2022/10/07 12:59:49;;;;;;;8.32;1.35;;;;;;;;;;5017463;28;20193;-62
2022/10/07 13:02:33;;;;;;;9.25;1.33;;;;;;;;;;5027084;28;20045;-66
2022/10/07 13:05:18;;;;;;;8.27;1.02;;;;;;;;;;5034242;28;20049;-59
2022/10/07 13:08:08;;;;;;;9.30;1.48;;;;;;;;;;5026627;28;20061;-62
2022/10/07 13:10:48;;;;;;;11.48;1.35;;;;;;;;;;5018877;28;20118;-63
2022/10/07 13:13:18;;;;;;;8.32;1.38;;;;;;;;;;5026026;28;20067;-62
2022/10/07 13:15:47;;;;;;;8.77;1.08;;;;;;;;;;5020236;28;20045;-63
2022/10/07 13:18:14;;;;;;;;;;;;;;;;;;5044138;28;20045;-62
2022/10/07 13:20:53;;;;;;;8.50;1.08;;;;;;;;;;5033753;28;19924;-63
2022/10/07 13:23:21;;;;;;;5.50;0.95;;;;;;;;;;5026036;28;20058;-61
2022/10/07 13:25:51;;;;;;;7.60;1.33;;;;;;;;;;5019562;28;20079;-64
2022/10/07 13:28:21;;;;;;;8.55;1.30;;;;;;;;;;5026632;28;20057;-62
2022/10/07 13:30:49;;;;;;;7.40;0.93;;;;;;;;;;5020094;28;20056;-59
2022/10/07 13:33:23;;;;;;;7.15;1.25;;;;;;;;;;5026296;28;20059;-63
2022/10/07 13:35:50;;;;;;;5.30;1.27;;;;;;;;;;5036310;28;20054;-61
2022/10/07 13:38:23;;;;;;;8.65;1.77;;;;;;;;;;5025487;28;20052;-61
2022/10/07 13:40:56;;;;;;;10.40;1.13;;;;;;;;;;5021863;28;20056;-63
2022/10/07 13:43:25;;;;;;;6.07;1.23;;;;;;;;;;5046196;28;20055;-62
2022/10/07 13:45:51;;;;;;;;;;;;;;;;;;5015555;28;20064;-61
2022/10/07 13:48:21;;;;;;;6.22;1.00;;;;;;;;;;5029888;28;19932;-61
2022/10/07 13:50:48;;;;;;;10.30;1.10;;;;;;;;;;5014753;28;20049;-57
2022/10/07 13:53:20;;;;;;;5.57;0.90;;;;;;;;;;5043694;28;20070;-59
2022/10/07 13:55:48;;;;;;;6.30;1.00;;;;;;;;;;5019403;28;20056;-65
2022/10/07 13:58:15;;;;;;;4.13;0.85;;;;;;;;;;5005210;28;20053;-62
2022/10/07 14:00:43;;;;;;;7.45;1.00;;;;;;;;;;5020166;28;20132;-60
2022/10/07 14:03:13;;;;;;;9.48;1.45;;;;;;;;;;5004708;28;20049;-60
2022/10/07 14:05:46;;;;;;;5.45;1.15;;;;;;;;;;5046008;28;20057;-62
2022/10/07 14:08:15;;;;;;;7.22;0.93;;;;;;;;;;5023895;28;20052;-60
2022/10/07 14:10:51;;;;;;;5.68;1.20;;;;;;;;;;5020704;28;20164;-59
2022/10/07 14:13:19;;;;;;;7.40;1.30;;;;;;;;;;5015513;28;20053;-61
2022/10/07 14:15:48;;;;;;;6.50;1.45;;;;;;;;;;5009377;28;20153;-59
2022/10/07 14:18:15;;;;;;;4.78;1.40;;;;;;;;;;5015111;28;20063;-58
2022/10/07 14:20:48;;;;;;;1.52;0.80;;;;;;;;;;5021218;28;20045;-60
2022/10/07 14:23:18;;;;;;;11.63;1.27;;;;;;;;;;5011880;28;20060;-60
2022/10/07 14:25:53;;;;;;;7.57;1.10;;;;;;;;;;5019248;28;20068;-64
2022/10/07 14:28:27;;;;;;;5.93;1.30;;;;;;;;;;5025666;28;20057;-59
2022/10/07 14:36:57;;;;;;;6.72;1.08;;;;;;;;;;5020508;28;20049;-63
2022/10/07 14:39:30;;;;;;;7.13;1.13;;;;;;;;;;5037472;28;20060;-66
2022/10/07 14:41:58;;;;;;;9.07;1.30;;;;;;;;;;5010338;28;20123;-61
2022/10/07 14:44:25;;;;;;;4.97;1.08;;;;;;;;;;5004103;28;20061;-61
2022/10/07 14:47:02;;;;;;;3.22;1.10;;;;;;;;;;5008516;28;20057;-63
2022/10/07 14:49:29;;;;;;;2.75;1.05;;;;;;;;;;5015813;28;20159;-67
2022/10/07 14:51:56;;;;;;;9.55;1.38;;;;;;;;;;5028468;28;20068;-61
2022/10/07 14:54:23;;;;;;;5.47;0.90;;;;;;;;;;5013025;28;20050;-64
2022/10/07 14:56:50;;;;;;;6.68;1.25;;;;;;;;;;5023910;28;20049;-64
2022/10/07 14:59:18;;;;;;;9.63;1.60;;;;;;;;;;5016251;28;20072;-65
2022/10/07 15:01:45;;;;;;;3.30;1.00;;;;;;;;;;5022973;28;20145;-61
2022/10/07 15:04:12;;;;;;;4.93;0.95;;;;;;;;;;5021872;28;20056;-64